createdAt,value
2023-04-28T00:03:11.519Z,5.12
2023-04-28T00:07:09.255Z,5.13
2023-04-28T00:11:09.317Z,5.13
2023-04-28T00:15:07.151Z,5.11
2023-04-28T00:19:05.131Z,5.08
2023-04-28T00:23:03.122Z,5.03
2023-04-28T00:27:01.090Z,4.96
2023-04-28T00:30:59.178Z,4.88
2023-04-28T00:34:57.105Z,4.78
2023-04-28T00:38:55.142Z,4.70
2023-04-28T00:42:53.080Z,4.60
2023-04-28T00:46:51.232Z,4.51
2023-04-28T00:50:49.082Z,4.41
2023-04-28T00:54:50.158Z,4.33
2023-04-28T00:58:49.105Z,4.24
2023-04-28T01:02:47.205Z,4.15
2023-04-28T01:06:46.103Z,4.07
2023-04-28T01:10:44.212Z,4.00
2023-04-28T01:14:57.063Z,3.92
2023-04-28T01:19:01.077Z,3.84
2023-04-28T01:23:00.044Z,3.77
2023-04-28T01:27:00.384Z,3.71
2023-04-28T01:30:58.096Z,3.66
2023-04-28T01:34:56.155Z,3.63
2023-04-28T01:38:54.108Z,3.59
2023-04-28T01:42:52.015Z,3.54
2023-04-28T01:46:49.993Z,3.50
2023-04-28T01:50:48.150Z,3.44
2023-04-28T01:54:46.026Z,3.38
2023-04-28T01:58:44.251Z,3.32
2023-04-28T02:02:42.039Z,3.27
2023-04-28T02:06:39.980Z,3.23
2023-04-28T02:10:38.000Z,3.19
2023-04-28T02:14:36.013Z,3.16
2023-04-28T02:18:34.002Z,3.12
2023-04-28T02:22:32.048Z,3.11
2023-04-28T02:26:30.976Z,3.10
2023-04-28T02:30:28.997Z,3.11
2023-04-28T02:34:26.987Z,3.14
2023-04-28T02:38:25.931Z,3.18
2023-04-28T02:42:24.027Z,3.22
2023-04-28T02:46:22.013Z,3.27
2023-04-28T02:50:20.169Z,3.32
2023-04-28T02:54:18.184Z,3.37
2023-04-28T02:58:15.916Z,3.40
2023-04-28T03:02:13.967Z,3.43
2023-04-28T03:06:11.913Z,3.44
2023-04-28T03:10:09.913Z,3.46
2023-04-28T03:14:07.866Z,3.52
2023-04-28T03:18:05.937Z,3.60
2023-04-28T03:22:04.008Z,3.72
2023-04-28T03:26:02.903Z,3.84
2023-04-28T03:30:00.852Z,3.98
2023-04-28T03:33:58.866Z,4.09
2023-04-28T03:37:56.949Z,4.25
2023-04-28T03:41:54.874Z,4.82
2023-04-28T03:45:58.996Z,6.13
2023-04-28T03:49:56.917Z,7.96
2023-04-28T03:53:54.845Z,9.97
2023-04-28T03:57:52.826Z,11.90
2023-04-28T04:01:50.875Z,13.30
2023-04-28T04:05:49.033Z,14.38
2023-04-28T04:09:46.879Z,16.08
2023-04-28T04:13:44.840Z,17.70
2023-04-28T04:17:42.814Z,19.59
2023-04-28T04:21:40.826Z,21.42
2023-04-28T04:25:38.815Z,23.06
2023-04-28T04:29:36.819Z,24.29
2023-04-28T04:33:38.801Z,25.05
2023-04-28T04:37:37.770Z,25.33
2023-04-28T04:41:35.788Z,24.67
2023-04-28T04:45:49.816Z,25.02
2023-04-28T04:49:47.808Z,25.62
2023-04-28T04:53:45.785Z,25.94
2023-04-28T04:57:43.802Z,25.80
2023-04-28T05:01:53.866Z,23.68
2023-04-28T05:05:52.824Z,21.22
2023-04-28T05:09:56.864Z,18.62
2023-04-28T05:13:55.790Z,17.15
2023-04-28T05:17:54.372Z,15.99
2023-04-28T05:21:53.780Z,14.41
2023-04-28T05:25:51.787Z,12.95
2023-04-28T05:29:49.743Z,12.61
2023-04-28T05:33:47.751Z,12.08
2023-04-28T05:37:45.803Z,11.57
2023-04-28T05:41:43.753Z,11.35
2023-04-28T05:45:43.913Z,10.95
2023-04-28T05:49:41.691Z,10.66
2023-04-28T05:53:39.762Z,10.60
2023-04-28T05:57:49.265Z,10.74
2023-04-28T06:01:32.851Z,11.06
2023-04-28T06:04:57.212Z,11.29
2023-04-28T06:08:21.819Z,11.44
2023-04-28T06:11:46.824Z,11.38
2023-04-28T06:15:11.590Z,11.45
2023-04-28T06:18:36.401Z,11.62
2023-04-28T06:22:01.082Z,11.81
2023-04-28T06:25:25.408Z,11.85
2023-04-28T06:28:49.206Z,11.60
2023-04-28T06:32:13.109Z,11.24
2023-04-28T06:35:39.195Z,10.94
2023-04-28T06:39:03.074Z,10.73
2023-04-28T06:42:27.677Z,10.65
2023-04-28T06:46:02.848Z,10.78
2023-04-28T06:49:26.798Z,10.84
2023-04-28T06:52:57.405Z,10.63
2023-04-28T06:56:21.833Z,10.53
2023-04-28T06:59:47.296Z,10.70
2023-04-28T07:03:11.608Z,10.95
2023-04-28T07:06:36.088Z,11.29
2023-04-28T07:10:01.165Z,11.58
2023-04-28T07:13:25.320Z,11.70
2023-04-28T07:16:49.201Z,11.61
2023-04-28T07:20:14.076Z,11.40
2023-04-28T07:23:40.444Z,11.29
2023-04-28T07:27:04.687Z,11.22
2023-04-28T07:30:28.550Z,11.35
2023-04-28T07:33:52.645Z,11.71
2023-04-28T07:37:18.256Z,11.95
2023-04-28T07:40:44.457Z,11.69
2023-04-28T07:44:08.806Z,11.42
2023-04-28T07:47:32.786Z,11.69
2023-04-28T07:50:56.757Z,11.85
2023-04-28T07:54:20.893Z,11.82
2023-04-28T07:57:44.719Z,11.90
2023-04-28T08:01:08.749Z,12.14
2023-04-28T08:04:35.019Z,12.27
2023-04-28T08:08:00.598Z,12.29
2023-04-28T08:11:24.578Z,12.34
2023-04-28T08:14:48.690Z,12.45
2023-04-28T08:18:13.893Z,12.53
2023-04-28T08:21:37.861Z,12.61
2023-04-28T08:25:01.766Z,12.53
2023-04-28T08:28:25.622Z,12.33
2023-04-28T08:31:49.756Z,12.51
2023-04-28T08:35:15.518Z,12.71
2023-04-28T08:38:39.917Z,12.85
2023-04-28T08:42:06.973Z,12.97
2023-04-28T08:45:31.974Z,13.19
2023-04-28T08:49:02.231Z,13.45
2023-04-28T08:52:27.796Z,13.72
2023-04-28T08:55:58.705Z,13.92
2023-04-28T08:59:22.849Z,14.17
2023-04-28T09:02:46.871Z,14.47
2023-04-28T09:06:10.864Z,14.84
2023-04-28T09:09:37.135Z,15.05
2023-04-28T09:13:02.976Z,15.16
2023-04-28T09:16:41.576Z,15.34
2023-04-28T09:20:27.832Z,15.49
2023-04-28T09:23:52.209Z,15.27
2023-04-28T09:27:16.149Z,14.97
2023-04-28T09:30:41.390Z,15.02
2023-04-28T09:34:05.813Z,15.22
2023-04-28T09:37:31.308Z,15.36
2023-04-28T09:41:00.749Z,15.44
2023-04-28T09:44:24.824Z,15.64
2023-04-28T09:47:48.997Z,15.84
2023-04-28T09:51:13.293Z,15.96
2023-04-28T09:54:37.365Z,15.83
2023-04-28T09:58:08.067Z,15.44
2023-04-28T10:01:38.126Z,14.94
2023-04-28T10:05:02.455Z,14.13
2023-04-28T10:08:28.404Z,13.86
2023-04-28T10:11:52.691Z,13.89
2023-04-28T10:15:16.701Z,13.94
2023-04-28T10:18:41.204Z,14.09
2023-04-28T10:22:26.504Z,14.45
2023-04-28T10:26:08.884Z,14.86
2023-04-28T10:29:36.704Z,14.98
2023-04-28T10:33:16.320Z,15.15
2023-04-28T10:36:55.569Z,15.18
2023-04-28T10:40:41.281Z,15.18
2023-04-28T10:44:30.192Z,15.08
2023-04-28T10:48:06.576Z,15.08
2023-04-28T10:51:32.080Z,15.17
2023-04-28T10:55:22.047Z,15.34
2023-04-28T10:58:47.813Z,15.55
2023-04-28T11:02:42.627Z,15.72
2023-04-28T11:06:40.269Z,15.86
2023-04-28T11:10:04.278Z,15.62
2023-04-28T11:13:31.926Z,15.35
2023-04-28T11:17:00.719Z,15.23
2023-04-28T11:20:26.466Z,15.15
2023-04-28T11:23:50.655Z,14.69
2023-04-28T11:27:25.014Z,14.26
2023-04-28T11:30:49.008Z,14.21
2023-04-28T11:34:14.556Z,14.45
2023-04-28T11:37:39.190Z,14.61
2023-04-28T11:41:04.297Z,14.69
2023-04-28T11:44:30.920Z,15.13
2023-04-28T11:47:55.045Z,15.57
2023-04-28T11:51:41.708Z,15.23
2023-04-28T11:55:05.745Z,14.46
2023-04-28T11:58:29.679Z,14.06
2023-04-28T12:01:57.276Z,14.01
2023-04-28T12:05:22.690Z,14.03
2023-04-28T12:08:46.664Z,14.13
2023-04-28T12:12:17.239Z,14.76
2023-04-28T12:15:42.110Z,15.62
2023-04-28T12:19:10.099Z,16.37
2023-04-28T12:22:46.000Z,16.91
2023-04-28T12:26:10.223Z,17.33
2023-04-28T12:29:39.534Z,17.45
2023-04-28T12:33:04.503Z,17.06
2023-04-28T12:36:28.452Z,16.89
2023-04-28T12:39:52.207Z,16.68
2023-04-28T12:43:16.333Z,16.14
2023-04-28T12:46:41.265Z,15.73
2023-04-28T12:50:08.424Z,15.66
2023-04-28T12:53:32.348Z,15.55
2023-04-28T12:56:56.409Z,15.19
2023-04-28T13:00:23.365Z,15.21
2023-04-28T13:03:48.505Z,15.48
2023-04-28T13:07:13.261Z,15.74
2023-04-28T13:10:37.119Z,16.01
2023-04-28T13:14:01.065Z,16.41
2023-04-28T13:17:25.138Z,16.58
2023-04-28T13:20:48.984Z,16.67
2023-04-28T13:24:13.961Z,16.74
2023-04-28T13:27:38.868Z,16.79
2023-04-28T13:31:24.333Z,16.78
2023-04-28T13:35:22.266Z,16.75
2023-04-28T13:39:21.262Z,16.91
2023-04-28T13:43:19.196Z,16.82
2023-04-28T13:47:17.223Z,16.76
2023-04-28T13:51:15.311Z,16.62
2023-04-28T13:55:13.166Z,16.45
2023-04-28T13:59:12.287Z,16.36
2023-04-28T14:03:10.292Z,16.29
2023-04-28T14:07:09.157Z,15.57
2023-04-28T14:11:08.296Z,15.08
2023-04-28T14:15:07.204Z,15.04
2023-04-28T14:19:05.202Z,15.03
2023-04-28T14:23:03.134Z,15.02
2023-04-28T14:27:02.215Z,15.23
2023-04-28T14:31:00.165Z,15.89
2023-04-28T14:34:58.104Z,16.47
2023-04-28T14:38:58.186Z,16.87
2023-04-28T14:42:56.110Z,17.32
2023-04-28T14:46:54.132Z,17.69
2023-04-28T14:50:53.087Z,18.28
2023-04-28T14:54:51.149Z,18.79
2023-04-28T14:58:50.150Z,19.02
2023-04-28T15:02:48.255Z,19.08
2023-04-28T15:06:47.299Z,19.19
2023-04-28T15:10:52.105Z,19.43
2023-04-28T15:14:51.283Z,19.63
2023-04-28T15:18:49.132Z,19.74
2023-04-28T15:22:47.140Z,20.00
2023-04-28T15:26:45.135Z,19.86
2023-04-28T15:30:43.095Z,19.10
2023-04-28T15:34:41.081Z,19.13
2023-04-28T15:38:39.042Z,19.42
2023-04-28T15:42:37.247Z,19.61
2023-04-28T15:46:36.134Z,19.82
2023-04-28T15:50:41.146Z,19.92
2023-04-28T15:54:39.161Z,19.26
2023-04-28T15:58:37.341Z,18.80
2023-04-28T16:02:36.199Z,18.78
2023-04-28T16:06:34.056Z,18.88
2023-04-28T16:10:32.092Z,18.46
2023-04-28T16:14:30.064Z,17.85
2023-04-28T16:18:28.018Z,17.36
2023-04-28T16:22:26.081Z,16.79
2023-04-28T16:26:23.995Z,16.32
2023-04-28T16:30:23.069Z,15.92
2023-04-28T16:34:20.998Z,15.49
2023-04-28T16:38:20.041Z,15.13
2023-04-28T16:42:18.131Z,14.79
2023-04-28T16:46:16.156Z,14.54
2023-04-28T16:50:16.263Z,14.30
2023-04-28T16:54:14.066Z,14.07
2023-04-28T16:58:11.976Z,13.87
2023-04-28T17:02:14.043Z,13.65
2023-04-28T17:06:11.945Z,13.30
2023-04-28T17:10:11.097Z,12.88
2023-04-28T17:14:09.082Z,12.54
2023-04-28T17:18:07.158Z,12.29
2023-04-28T17:22:04.999Z,12.04
2023-04-28T17:26:03.952Z,11.80
2023-04-28T17:30:01.962Z,11.54
2023-04-28T17:34:00.014Z,11.27
2023-04-28T17:37:57.978Z,11.04
2023-04-28T17:41:56.060Z,10.84
2023-04-28T17:45:53.961Z,10.67
2023-04-28T17:49:52.987Z,10.50
2023-04-28T17:53:51.944Z,10.31
2023-04-28T17:57:50.052Z,10.14
2023-04-28T18:01:47.941Z,9.98
2023-04-28T18:05:45.957Z,9.85
2023-04-28T18:09:43.961Z,9.72
2023-04-28T18:13:41.916Z,9.61
2023-04-28T18:17:40.079Z,9.51
2023-04-28T18:21:38.898Z,9.41
2023-04-28T18:25:38.945Z,9.32
2023-04-28T18:29:36.871Z,9.22
2023-04-28T18:33:34.906Z,9.11
2023-04-28T18:37:32.932Z,9.02
2023-04-28T18:41:32.830Z,8.92
2023-04-28T18:45:30.952Z,8.81
2023-04-28T18:49:28.875Z,8.72
2023-04-28T18:53:27.974Z,8.60
2023-04-28T18:57:25.888Z,8.47
2023-04-28T19:01:31.000Z,8.38
2023-04-28T19:05:28.873Z,8.33
2023-04-28T19:09:29.820Z,8.29
2023-04-28T19:13:27.900Z,8.25
2023-04-28T19:49:25.100Z,7.95
2023-04-28T19:53:23.099Z,7.92
2023-04-28T19:57:21.134Z,7.89
2023-04-28T20:01:21.083Z,7.84
2023-04-28T20:05:19.099Z,7.80
2023-04-28T20:09:17.035Z,7.73
2023-04-28T20:13:15.114Z,7.67
2023-04-28T20:17:14.112Z,7.61
2023-04-28T20:21:12.033Z,7.53
2023-04-28T20:25:13.093Z,7.46
2023-04-28T20:29:12.169Z,7.40
2023-04-28T20:33:10.020Z,7.37
2023-04-28T20:37:11.033Z,7.36
2023-04-28T20:41:09.171Z,7.34
2023-04-28T20:45:06.988Z,7.36
2023-04-28T20:49:04.954Z,7.36
2023-04-28T20:53:03.102Z,7.36
2023-04-28T20:57:00.967Z,7.34
2023-04-28T21:00:58.992Z,7.31
2023-04-28T21:04:58.010Z,7.26
2023-04-28T21:08:56.020Z,7.21
2023-04-28T21:12:53.987Z,7.16
2023-04-28T21:16:52.081Z,7.09
2023-04-28T21:20:49.951Z,7.03
2023-04-28T21:24:48.028Z,6.97
2023-04-28T21:28:46.932Z,6.93
2023-04-28T21:32:44.956Z,6.89
2023-04-28T21:36:42.985Z,6.85
2023-04-28T21:40:41.082Z,6.80
2023-04-28T21:44:38.961Z,6.73
2023-04-28T21:48:36.930Z,6.66
2023-04-28T21:52:34.960Z,6.60
2023-04-28T21:56:32.936Z,6.56
2023-04-28T22:00:30.883Z,6.52
2023-04-28T22:04:31.177Z,6.47
2023-04-28T22:08:28.868Z,6.38
2023-04-28T22:12:27.068Z,6.30
2023-04-28T22:16:25.023Z,6.18
2023-04-28T22:20:22.927Z,6.08
2023-04-28T22:24:20.861Z,6.00
2023-04-28T22:28:20.882Z,5.91
2023-04-28T22:32:18.947Z,5.85
2023-04-28T22:36:17.897Z,5.81
2023-04-28T22:40:15.832Z,5.80
2023-04-28T22:44:13.875Z,5.77
2023-04-28T22:48:11.892Z,5.76
2023-04-28T22:52:09.816Z,5.77
2023-04-28T22:56:09.844Z,5.76
2023-04-28T23:00:09.823Z,5.74
2023-04-28T23:04:07.985Z,5.72
2023-04-28T23:08:05.812Z,5.71
2023-04-28T23:12:03.803Z,5.72
2023-04-28T23:16:01.865Z,5.70
2023-04-28T23:19:59.979Z,5.70
2023-04-28T23:23:59.939Z,5.64
2023-04-28T23:27:57.871Z,5.61
2023-04-28T23:31:58.925Z,5.56
2023-04-28T23:35:56.795Z,5.51
2023-04-28T23:39:54.882Z,5.47
2023-04-28T23:43:54.798Z,5.41
2023-04-28T23:47:52.836Z,5.35
2023-04-28T23:51:50.763Z,5.30
2023-04-28T23:55:48.850Z,5.26
2023-04-28T23:59:48.696Z,5.21
